sensor_id;sensor_type;location;lat;lon;timestamp;P1;durP1;ratioP1;P2;durP2;ratioP2
13325;SDS011;6732;51.044;3.746;2023-03-01T00:01:23;7.00;;;6.30;;
13325;SDS011;6732;51.044;3.746;2023-03-01T00:03:50;8.77;;;5.97;;
13325;SDS011;6732;51.044;3.746;2023-03-01T00:06:16;5.63;;;5.00;;
13325;SDS011;6732;51.044;3.746;2023-03-01T00:08:43;6.03;;;5.37;;
13325;SDS011;6732;51.044;3.746;2023-03-01T00:11:10;6.10;;;5.50;;
13325;SDS011;6732;51.044;3.746;2023-03-01T00:13:38;6.33;;;5.60;;
13325;SDS011;6732;51.044;3.746;2023-03-01T00:16:04;5.93;;;5.43;;
13325;SDS011;6732;51.044;3.746;2023-03-01T00:18:31;6.03;;;5.43;;
13325;SDS011;6732;51.044;3.746;2023-03-01T00:20:57;6.93;;;5.67;;
13325;SDS011;6732;51.044;3.746;2023-03-01T00:23:24;6.53;;;6.03;;
13325;SDS011;6732;51.044;3.746;2023-03-01T00:25:51;7.80;;;6.10;;
13325;SDS011;6732;51.044;3.746;2023-03-01T00:28:18;6.77;;;6.10;;
13325;SDS011;6732;51.044;3.746;2023-03-01T00:30:44;6.13;;;5.47;;
13325;SDS011;6732;51.044;3.746;2023-03-01T00:33:11;6.30;;;5.40;;
13325;SDS011;6732;51.044;3.746;2023-03-01T00:35:37;6.53;;;5.93;;
13325;SDS011;6732;51.044;3.746;2023-03-01T00:38:04;6.40;;;5.80;;
13325;SDS011;6732;51.044;3.746;2023-03-01T00:40:31;6.67;;;5.90;;
13325;SDS011;6732;51.044;3.746;2023-03-01T00:42:58;7.60;;;5.70;;
13325;SDS011;6732;51.044;3.746;2023-03-01T00:45:24;7.10;;;6.30;;
13325;SDS011;6732;51.044;3.746;2023-03-01T00:47:51;6.70;;;6.10;;
13325;SDS011;6732;51.044;3.746;2023-03-01T00:50:17;7.90;;;6.37;;
13325;SDS011;6732;51.044;3.746;2023-03-01T00:52:43;6.37;;;5.87;;
13325;SDS011;6732;51.044;3.746;2023-03-01T00:55:10;7.50;;;6.70;;
13325;SDS011;6732;51.044;3.746;2023-03-01T00:57:36;7.30;;;6.30;;
13325;SDS011;6732;51.044;3.746;2023-03-01T01:00:06;7.50;;;6.80;;
13325;SDS011;6732;51.044;3.746;2023-03-01T01:02:35;7.23;;;6.53;;
13325;SDS011;6732;51.044;3.746;2023-03-01T01:05:01;7.33;;;6.63;;
13325;SDS011;6732;51.044;3.746;2023-03-01T01:07:27;7.33;;;6.57;;
13325;SDS011;6732;51.044;3.746;2023-03-01T01:09:54;7.23;;;6.57;;
13325;SDS011;6732;51.044;3.746;2023-03-01T01:12:20;7.00;;;6.40;;
13325;SDS011;6732;51.044;3.746;2023-03-01T01:14:46;7.10;;;6.40;;
13325;SDS011;6732;51.044;3.746;2023-03-01T01:17:12;6.93;;;6.33;;
13325;SDS011;6732;51.044;3.746;2023-03-01T01:19:39;7.27;;;6.57;;
13325;SDS011;6732;51.044;3.746;2023-03-01T01:22:05;7.97;;;7.10;;
13325;SDS011;6732;51.044;3.746;2023-03-01T01:24:31;8.80;;;6.87;;
13325;SDS011;6732;51.044;3.746;2023-03-01T01:26:57;8.63;;;6.57;;
13325;SDS011;6732;51.044;3.746;2023-03-01T01:29:24;7.40;;;6.70;;
13325;SDS011;6732;51.044;3.746;2023-03-01T01:31:50;7.37;;;6.53;;
13325;SDS011;6732;51.044;3.746;2023-03-01T01:34:17;7.07;;;6.37;;
13325;SDS011;6732;51.044;3.746;2023-03-01T01:36:47;7.57;;;6.83;;
13325;SDS011;6732;51.044;3.746;2023-03-01T01:39:14;7.13;;;6.53;;
13325;SDS011;6732;51.044;3.746;2023-03-01T01:41:40;8.43;;;7.50;;
13325;SDS011;6732;51.044;3.746;2023-03-01T01:44:18;7.67;;;6.97;;
13325;SDS011;6732;51.044;3.746;2023-03-01T01:51:57;8.60;;;7.63;;
13325;SDS011;6732;51.044;3.746;2023-03-01T01:54:27;8.67;;;7.97;;
13325;SDS011;6732;51.044;3.746;2023-03-01T01:56:56;8.80;;;7.90;;
13325;SDS011;6732;51.044;3.746;2023-03-01T01:59:25;8.97;;;8.17;;
13325;SDS011;6732;51.044;3.746;2023-03-01T02:01:52;9.53;;;8.03;;
13325;SDS011;6732;51.044;3.746;2023-03-01T02:04:19;9.13;;;8.30;;
13325;SDS011;6732;51.044;3.746;2023-03-01T02:06:55;10.40;;;8.60;;
13325;SDS011;6732;51.044;3.746;2023-03-01T02:09:23;9.30;;;8.30;;
13325;SDS011;6732;51.044;3.746;2023-03-01T02:11:50;9.17;;;8.30;;
13325;SDS011;6732;51.044;3.746;2023-03-01T02:14:17;9.80;;;8.90;;
13325;SDS011;6732;51.044;3.746;2023-03-01T02:16:43;10.33;;;9.33;;
13325;SDS011;6732;51.044;3.746;2023-03-01T02:19:12;9.57;;;8.63;;
13325;SDS011;6732;51.044;3.746;2023-03-01T02:22:13;9.90;;;8.70;;
13325;SDS011;6732;51.044;3.746;2023-03-01T02:24:35;10.10;;;9.20;;
13325;SDS011;6732;51.044;3.746;2023-03-01T02:27:04;9.90;;;8.90;;
13325;SDS011;6732;51.044;3.746;2023-03-01T02:29:30;9.97;;;9.03;;
13325;SDS011;6732;51.044;3.746;2023-03-01T02:31:57;10.20;;;9.23;;
13325;SDS011;6732;51.044;3.746;2023-03-01T02:34:26;10.27;;;9.27;;
13325;SDS011;6732;51.044;3.746;2023-03-01T02:36:59;9.90;;;9.00;;
13325;SDS011;6732;51.044;3.746;2023-03-01T02:39:28;10.20;;;9.20;;
13325;SDS011;6732;51.044;3.746;2023-03-01T02:41:56;10.57;;;9.57;;
13325;SDS011;6732;51.044;3.746;2023-03-01T02:44:24;10.37;;;9.37;;
13325;SDS011;6732;51.044;3.746;2023-03-01T02:46:51;10.70;;;9.60;;
13325;SDS011;6732;51.044;3.746;2023-03-01T02:49:25;10.90;;;9.80;;
13325;SDS011;6732;51.044;3.746;2023-03-01T02:55:01;11.33;;;10.27;;
13325;SDS011;6732;51.044;3.746;2023-03-01T02:57:30;11.40;;;10.30;;
13325;SDS011;6732;51.044;3.746;2023-03-01T02:59:58;11.53;;;10.33;;
13325;SDS011;6732;51.044;3.746;2023-03-01T03:02:26;11.33;;;10.33;;
13325;SDS011;6732;51.044;3.746;2023-03-01T03:05:13;11.67;;;10.50;;
13325;SDS011;6732;51.044;3.746;2023-03-01T03:07:40;11.83;;;10.57;;
13325;SDS011;6732;51.044;3.746;2023-03-01T03:10:13;11.63;;;10.50;;
13325;SDS011;6732;51.044;3.746;2023-03-01T03:12:40;13.07;;;11.77;;
13325;SDS011;6732;51.044;3.746;2023-03-01T03:15:06;14.27;;;11.73;;
13325;SDS011;6732;51.044;3.746;2023-03-01T03:17:37;12.27;;;11.07;;
13325;SDS011;6732;51.044;3.746;2023-03-01T03:20:04;13.37;;;12.07;;
13325;SDS011;6732;51.044;3.746;2023-03-01T03:22:31;12.73;;;11.53;;
13325;SDS011;6732;51.044;3.746;2023-03-01T03:24:59;13.07;;;11.77;;
13325;SDS011;6732;51.044;3.746;2023-03-01T03:27:25;12.73;;;11.43;;
13325;SDS011;6732;51.044;3.746;2023-03-01T03:29:52;13.53;;;12.13;;
13325;SDS011;6732;51.044;3.746;2023-03-01T03:32:18;13.80;;;11.80;;
13325;SDS011;6732;51.044;3.746;2023-03-01T03:34:44;13.80;;;12.30;;
13325;SDS011;6732;51.044;3.746;2023-03-01T03:37:10;13.83;;;12.43;;
13325;SDS011;6732;51.044;3.746;2023-03-01T03:39:57;14.47;;;13.07;;
13325;SDS011;6732;51.044;3.746;2023-03-01T03:42:23;15.17;;;13.20;;
13325;SDS011;6732;51.044;3.746;2023-03-01T03:44:49;13.60;;;11.97;;
13325;SDS011;6732;51.044;3.746;2023-03-01T03:47:16;14.07;;;12.63;;
13325;SDS011;6732;51.044;3.746;2023-03-01T03:49:42;14.27;;;12.87;;
13325;SDS011;6732;51.044;3.746;2023-03-01T03:52:08;14.00;;;12.60;;
13325;SDS011;6732;51.044;3.746;2023-03-01T03:54:39;12.87;;;11.60;;
13325;SDS011;6732;51.044;3.746;2023-03-01T03:57:06;13.33;;;11.97;;
13325;SDS011;6732;51.044;3.746;2023-03-01T03:59:32;13.60;;;12.30;;
13325;SDS011;6732;51.044;3.746;2023-03-01T04:01:59;14.23;;;12.83;;
13325;SDS011;6732;51.044;3.746;2023-03-01T04:04:25;13.43;;;12.07;;
13325;SDS011;6732;51.044;3.746;2023-03-01T04:06:52;14.43;;;12.93;;
13325;SDS011;6732;51.044;3.746;2023-03-01T04:09:18;15.27;;;12.83;;
13325;SDS011;6732;51.044;3.746;2023-03-01T04:11:44;14.40;;;12.27;;
13325;SDS011;6732;51.044;3.746;2023-03-01T04:14:10;14.33;;;12.93;;
13325;SDS011;6732;51.044;3.746;2023-03-01T04:16:37;15.27;;;13.27;;
13325;SDS011;6732;51.044;3.746;2023-03-01T04:19:03;16.20;;;12.87;;
13325;SDS011;6732;51.044;3.746;2023-03-01T04:21:31;15.73;;;12.93;;
13325;SDS011;6732;51.044;3.746;2023-03-01T04:23:57;13.87;;;12.07;;
13325;SDS011;6732;51.044;3.746;2023-03-01T04:26:24;14.40;;;11.70;;
13325;SDS011;6732;51.044;3.746;2023-03-01T04:28:50;16.93;;;13.27;;
13325;SDS011;6732;51.044;3.746;2023-03-01T04:31:17;15.17;;;13.57;;
13325;SDS011;6732;51.044;3.746;2023-03-01T04:33:50;15.67;;;14.07;;
13325;SDS011;6732;51.044;3.746;2023-03-01T04:36:17;15.00;;;12.47;;
13325;SDS011;6732;51.044;3.746;2023-03-01T04:38:44;15.47;;;13.07;;
13325;SDS011;6732;51.044;3.746;2023-03-01T04:41:14;14.17;;;12.67;;
13325;SDS011;6732;51.044;3.746;2023-03-01T04:43:41;17.40;;;12.03;;
13325;SDS011;6732;51.044;3.746;2023-03-01T04:46:08;15.03;;;13.50;;
13325;SDS011;6732;51.044;3.746;2023-03-01T04:48:35;15.30;;;13.80;;
13325;SDS011;6732;51.044;3.746;2023-03-01T04:51:02;14.73;;;13.17;;
13325;SDS011;6732;51.044;3.746;2023-03-01T04:53:29;14.97;;;13.47;;
13325;SDS011;6732;51.044;3.746;2023-03-01T04:55:55;15.97;;;14.07;;
13325;SDS011;6732;51.044;3.746;2023-03-01T04:58:22;15.73;;;14.03;;
13325;SDS011;6732;51.044;3.746;2023-03-01T05:00:49;16.70;;;13.53;;
13325;SDS011;6732;51.044;3.746;2023-03-01T05:03:15;15.87;;;14.17;;
13325;SDS011;6732;51.044;3.746;2023-03-01T05:05:45;15.07;;;13.47;;
13325;SDS011;6732;51.044;3.746;2023-03-01T05:08:12;15.97;;;14.37;;
13325;SDS011;6732;51.044;3.746;2023-03-01T05:10:49;16.17;;;14.07;;
13325;SDS011;6732;51.044;3.746;2023-03-01T05:13:15;15.37;;;13.77;;
13325;SDS011;6732;51.044;3.746;2023-03-01T05:15:56;15.13;;;13.33;;
13325;SDS011;6732;51.044;3.746;2023-03-01T05:18:27;15.47;;;13.83;;
13325;SDS011;6732;51.044;3.746;2023-03-01T05:20:53;15.97;;;14.27;;
13325;SDS011;6732;51.044;3.746;2023-03-01T05:23:24;16.17;;;14.47;;
13325;SDS011;6732;51.044;3.746;2023-03-01T05:25:50;15.33;;;13.80;;
13325;SDS011;6732;51.044;3.746;2023-03-01T05:28:18;15.27;;;13.43;;
13325;SDS011;6732;51.044;3.746;2023-03-01T05:30:45;15.10;;;13.60;;
13325;SDS011;6732;51.044;3.746;2023-03-01T05:33:11;15.23;;;13.63;;
13325;SDS011;6732;51.044;3.746;2023-03-01T05:35:41;15.30;;;13.67;;
13325;SDS011;6732;51.044;3.746;2023-03-01T05:38:08;15.57;;;13.97;;
13325;SDS011;6732;51.044;3.746;2023-03-01T05:40:34;14.60;;;12.97;;
13325;SDS011;6732;51.044;3.746;2023-03-01T05:43:00;15.20;;;13.30;;
13325;SDS011;6732;51.044;3.746;2023-03-01T05:45:30;14.23;;;12.73;;
13325;SDS011;6732;51.044;3.746;2023-03-01T05:48:00;15.63;;;12.57;;
13325;SDS011;6732;51.044;3.746;2023-03-01T05:50:29;15.10;;;13.03;;
13325;SDS011;6732;51.044;3.746;2023-03-01T05:52:57;16.27;;;13.53;;
13325;SDS011;6732;51.044;3.746;2023-03-01T05:55:23;14.07;;;12.53;;
13325;SDS011;6732;51.044;3.746;2023-03-01T05:57:50;14.87;;;13.20;;
13325;SDS011;6732;51.044;3.746;2023-03-01T06:00:17;15.33;;;12.67;;
13325;SDS011;6732;51.044;3.746;2023-03-01T06:02:44;15.67;;;13.67;;
13325;SDS011;6732;51.044;3.746;2023-03-01T06:05:11;14.37;;;12.97;;
13325;SDS011;6732;51.044;3.746;2023-03-01T06:07:38;15.23;;;12.40;;
13325;SDS011;6732;51.044;3.746;2023-03-01T06:10:05;13.27;;;11.87;;
13325;SDS011;6732;51.044;3.746;2023-03-01T06:12:32;15.43;;;12.47;;
13325;SDS011;6732;51.044;3.746;2023-03-01T06:14:59;14.20;;;12.73;;
13325;SDS011;6732;51.044;3.746;2023-03-01T06:17:25;14.07;;;12.57;;
13325;SDS011;6732;51.044;3.746;2023-03-01T06:19:52;14.83;;;13.23;;
13325;SDS011;6732;51.044;3.746;2023-03-01T06:22:18;14.67;;;13.00;;
13325;SDS011;6732;51.044;3.746;2023-03-01T06:24:44;16.00;;;13.67;;
13325;SDS011;6732;51.044;3.746;2023-03-01T06:27:11;14.90;;;13.47;;
13325;SDS011;6732;51.044;3.746;2023-03-01T06:29:37;18.00;;;14.30;;
13325;SDS011;6732;51.044;3.746;2023-03-01T06:32:03;15.57;;;13.97;;
13325;SDS011;6732;51.044;3.746;2023-03-01T06:34:29;15.57;;;13.57;;
13325;SDS011;6732;51.044;3.746;2023-03-01T06:36:56;14.77;;;13.27;;
13325;SDS011;6732;51.044;3.746;2023-03-01T06:39:22;14.73;;;13.23;;
13325;SDS011;6732;51.044;3.746;2023-03-01T06:41:48;15.37;;;13.77;;
13325;SDS011;6732;51.044;3.746;2023-03-01T06:44:15;15.93;;;13.57;;
13325;SDS011;6732;51.044;3.746;2023-03-01T06:46:41;14.93;;;12.87;;
13325;SDS011;6732;51.044;3.746;2023-03-01T06:49:07;15.83;;;12.83;;
13325;SDS011;6732;51.044;3.746;2023-03-01T06:51:37;13.67;;;12.23;;
13325;SDS011;6732;51.044;3.746;2023-03-01T06:54:04;13.40;;;11.40;;
13325;SDS011;6732;51.044;3.746;2023-03-01T06:56:31;14.53;;;12.13;;
13325;SDS011;6732;51.044;3.746;2023-03-01T06:58:58;13.50;;;12.10;;
13325;SDS011;6732;51.044;3.746;2023-03-01T07:01:24;14.57;;;12.17;;
13325;SDS011;6732;51.044;3.746;2023-03-01T07:03:51;15.13;;;12.17;;
13325;SDS011;6732;51.044;3.746;2023-03-01T07:06:17;13.07;;;10.93;;
13325;SDS011;6732;51.044;3.746;2023-03-01T07:08:43;14.20;;;12.13;;
13325;SDS011;6732;51.044;3.746;2023-03-01T07:11:09;12.40;;;10.83;;
13325;SDS011;6732;51.044;3.746;2023-03-01T07:13:36;12.83;;;11.40;;
13325;SDS011;6732;51.044;3.746;2023-03-01T07:16:02;13.03;;;11.63;;
13325;SDS011;6732;51.044;3.746;2023-03-01T07:18:29;13.50;;;11.00;;
13325;SDS011;6732;51.044;3.746;2023-03-01T07:20:55;12.03;;;10.73;;
13325;SDS011;6732;51.044;3.746;2023-03-01T07:23:21;11.87;;;10.73;;
13325;SDS011;6732;51.044;3.746;2023-03-01T07:25:54;11.70;;;10.50;;
13325;SDS011;6732;51.044;3.746;2023-03-01T07:28:22;12.53;;;10.50;;
13325;SDS011;6732;51.044;3.746;2023-03-01T07:30:48;11.23;;;10.13;;
13325;SDS011;6732;51.044;3.746;2023-03-01T07:33:14;11.53;;;10.43;;
13325;SDS011;6732;51.044;3.746;2023-03-01T07:35:41;11.57;;;10.13;;
13325;SDS011;6732;51.044;3.746;2023-03-01T07:38:07;10.73;;;9.63;;
13325;SDS011;6732;51.044;3.746;2023-03-01T07:40:35;11.37;;;9.87;;
13325;SDS011;6732;51.044;3.746;2023-03-01T07:43:01;10.73;;;9.70;;
13325;SDS011;6732;51.044;3.746;2023-03-01T07:45:27;11.27;;;10.07;;
13325;SDS011;6732;51.044;3.746;2023-03-01T07:47:54;12.20;;;10.43;;
13325;SDS011;6732;51.044;3.746;2023-03-01T07:50:21;11.47;;;9.70;;
13325;SDS011;6732;51.044;3.746;2023-03-01T07:52:48;11.60;;;10.40;;
13325;SDS011;6732;51.044;3.746;2023-03-01T07:55:15;12.17;;;10.43;;
13325;SDS011;6732;51.044;3.746;2023-03-01T07:57:42;11.77;;;10.07;;
13325;SDS011;6732;51.044;3.746;2023-03-01T08:00:10;11.37;;;9.93;;
13325;SDS011;6732;51.044;3.746;2023-03-01T08:02:37;11.20;;;10.03;;
13325;SDS011;6732;51.044;3.746;2023-03-01T08:05:05;11.23;;;9.83;;
13325;SDS011;6732;51.044;3.746;2023-03-01T08:07:32;10.83;;;9.67;;
13325;SDS011;6732;51.044;3.746;2023-03-01T08:09:59;11.10;;;10.00;;
13325;SDS011;6732;51.044;3.746;2023-03-01T08:12:25;12.20;;;11.00;;
13325;SDS011;6732;51.044;3.746;2023-03-01T08:14:53;11.93;;;10.73;;
13325;SDS011;6732;51.044;3.746;2023-03-01T08:17:20;13.13;;;10.30;;
13325;SDS011;6732;51.044;3.746;2023-03-01T08:19:46;11.37;;;10.17;;
13325;SDS011;6732;51.044;3.746;2023-03-01T08:22:12;11.20;;;10.10;;
13325;SDS011;6732;51.044;3.746;2023-03-01T08:24:38;11.57;;;10.33;;
13325;SDS011;6732;51.044;3.746;2023-03-01T08:27:05;11.17;;;10.00;;
13325;SDS011;6732;51.044;3.746;2023-03-01T08:29:31;11.07;;;9.53;;
13325;SDS011;6732;51.044;3.746;2023-03-01T08:31:58;11.60;;;10.37;;
13325;SDS011;6732;51.044;3.746;2023-03-01T08:34:24;12.10;;;9.53;;
13325;SDS011;6732;51.044;3.746;2023-03-01T08:36:51;10.27;;;9.17;;
13325;SDS011;6732;51.044;3.746;2023-03-01T08:39:18;10.23;;;8.83;;
13325;SDS011;6732;51.044;3.746;2023-03-01T08:41:44;9.83;;;8.03;;
13325;SDS011;6732;51.044;3.746;2023-03-01T08:44:12;10.50;;;8.60;;
13325;SDS011;6732;51.044;3.746;2023-03-01T08:46:39;11.43;;;8.43;;
13325;SDS011;6732;51.044;3.746;2023-03-01T08:49:11;9.97;;;8.83;;
13325;SDS011;6732;51.044;3.746;2023-03-01T08:51:37;10.67;;;8.60;;
13325;SDS011;6732;51.044;3.746;2023-03-01T08:54:05;11.40;;;8.67;;
13325;SDS011;6732;51.044;3.746;2023-03-01T08:56:31;10.10;;;8.53;;
13325;SDS011;6732;51.044;3.746;2023-03-01T08:58:57;11.53;;;9.17;;
13325;SDS011;6732;51.044;3.746;2023-03-01T09:01:23;11.23;;;8.73;;
13325;SDS011;6732;51.044;3.746;2023-03-01T09:03:50;10.60;;;8.17;;
13325;SDS011;6732;51.044;3.746;2023-03-01T09:06:16;9.77;;;8.00;;
13325;SDS011;6732;51.044;3.746;2023-03-01T09:08:43;9.87;;;7.97;;
13325;SDS011;6732;51.044;3.746;2023-03-01T09:11:11;13.27;;;9.27;;
13325;SDS011;6732;51.044;3.746;2023-03-01T09:13:38;10.73;;;9.30;;
13325;SDS011;6732;51.044;3.746;2023-03-01T09:16:05;10.20;;;9.10;;
13325;SDS011;6732;51.044;3.746;2023-03-01T09:18:32;11.53;;;9.07;;
13325;SDS011;6732;51.044;3.746;2023-03-01T09:21:04;10.90;;;9.13;;
13325;SDS011;6732;51.044;3.746;2023-03-01T09:23:36;9.53;;;8.53;;
13325;SDS011;6732;51.044;3.746;2023-03-01T09:26:07;9.93;;;8.77;;
13325;SDS011;6732;51.044;3.746;2023-03-01T09:28:34;10.03;;;8.50;;
13325;SDS011;6732;51.044;3.746;2023-03-01T09:31:01;9.87;;;8.87;;
13325;SDS011;6732;51.044;3.746;2023-03-01T09:33:28;9.90;;;7.90;;
13325;SDS011;6732;51.044;3.746;2023-03-01T09:35:57;10.60;;;8.50;;
13325;SDS011;6732;51.044;3.746;2023-03-01T09:38:24;10.13;;;8.33;;
13325;SDS011;6732;51.044;3.746;2023-03-01T09:40:50;8.77;;;7.87;;
13325;SDS011;6732;51.044;3.746;2023-03-01T09:43:19;8.80;;;7.83;;
13325;SDS011;6732;51.044;3.746;2023-03-01T09:45:47;8.87;;;7.97;;
13325;SDS011;6732;51.044;3.746;2023-03-01T09:48:22;10.70;;;8.23;;
13325;SDS011;6732;51.044;3.746;2023-03-01T09:50:49;10.33;;;7.90;;
13325;SDS011;6732;51.044;3.746;2023-03-01T09:53:17;12.60;;;8.93;;
13325;SDS011;6732;51.044;3.746;2023-03-01T10:00:42;9.13;;;8.23;;
13325;SDS011;6732;51.044;3.746;2023-03-01T10:03:13;11.60;;;8.37;;
13325;SDS011;6732;51.044;3.746;2023-03-01T10:10:38;9.30;;;7.50;;
13325;SDS011;6732;51.044;3.746;2023-03-01T10:13:14;10.00;;;8.40;;
13325;SDS011;6732;51.044;3.746;2023-03-01T10:15:44;10.40;;;7.70;;
13325;SDS011;6732;51.044;3.746;2023-03-01T10:18:20;11.40;;;8.73;;
13325;SDS011;6732;51.044;3.746;2023-03-01T10:23:16;8.60;;;7.80;;
13325;SDS011;6732;51.044;3.746;2023-03-01T10:25:45;8.27;;;7.37;;
13325;SDS011;6732;51.044;3.746;2023-03-01T10:28:16;9.03;;;8.00;;
13325;SDS011;6732;51.044;3.746;2023-03-01T10:30:42;8.67;;;7.70;;
13325;SDS011;6732;51.044;3.746;2023-03-01T10:33:14;9.47;;;8.43;;
13325;SDS011;6732;51.044;3.746;2023-03-01T10:35:42;7.80;;;7.00;;
13325;SDS011;6732;51.044;3.746;2023-03-01T10:38:09;10.57;;;7.87;;
13325;SDS011;6732;51.044;3.746;2023-03-01T10:40:36;9.60;;;8.47;;
13325;SDS011;6732;51.044;3.746;2023-03-01T10:43:15;9.27;;;8.10;;
13325;SDS011;6732;51.044;3.746;2023-03-01T10:45:41;8.37;;;7.50;;
13325;SDS011;6732;51.044;3.746;2023-03-01T10:50:34;8.70;;;7.80;;
13325;SDS011;6732;51.044;3.746;2023-03-01T10:53:04;9.60;;;8.00;;
13325;SDS011;6732;51.044;3.746;2023-03-01T10:55:33;9.60;;;7.80;;
13325;SDS011;6732;51.044;3.746;2023-03-01T10:58:07;9.60;;;7.53;;
13325;SDS011;6732;51.044;3.746;2023-03-01T11:00:34;9.80;;;7.70;;
13325;SDS011;6732;51.044;3.746;2023-03-01T11:03:12;8.10;;;7.30;;
13325;SDS011;6732;51.044;3.746;2023-03-01T11:05:50;9.07;;;7.47;;
13325;SDS011;6732;51.044;3.746;2023-03-01T11:08:26;8.93;;;7.70;;
13325;SDS011;6732;51.044;3.746;2023-03-01T11:11:56;8.63;;;7.73;;
13325;SDS011;6732;51.044;3.746;2023-03-01T11:14:00;9.10;;;7.87;;
13325;SDS011;6732;51.044;3.746;2023-03-01T11:16:29;7.77;;;7.07;;
13325;SDS011;6732;51.044;3.746;2023-03-01T11:18:58;8.37;;;7.47;;
13325;SDS011;6732;51.044;3.746;2023-03-01T11:21:24;9.37;;;7.73;;
13325;SDS011;6732;51.044;3.746;2023-03-01T11:23:52;12.13;;;7.17;;
13325;SDS011;6732;51.044;3.746;2023-03-01T11:26:19;8.17;;;7.37;;
13325;SDS011;6732;51.044;3.746;2023-03-01T11:28:47;8.10;;;7.30;;
13325;SDS011;6732;51.044;3.746;2023-03-01T11:31:14;9.00;;;7.33;;
13325;SDS011;6732;51.044;3.746;2023-03-01T11:33:49;8.20;;;7.23;;
13325;SDS011;6732;51.044;3.746;2023-03-01T11:36:24;8.03;;;6.73;;
13325;SDS011;6732;51.044;3.746;2023-03-01T11:38:53;9.10;;;6.43;;
13325;SDS011;6732;51.044;3.746;2023-03-01T11:41:20;9.13;;;7.13;;
13325;SDS011;6732;51.044;3.746;2023-03-01T11:54:13;6.63;;;5.90;;
13325;SDS011;6732;51.044;3.746;2023-03-01T11:56:54;6.40;;;5.73;;
13325;SDS011;6732;51.044;3.746;2023-03-01T11:59:43;9.47;;;6.87;;
13325;SDS011;6732;51.044;3.746;2023-03-01T12:07:12;7.13;;;6.43;;
13325;SDS011;6732;51.044;3.746;2023-03-01T12:09:48;7.23;;;6.00;;
13325;SDS011;6732;51.044;3.746;2023-03-01T12:12:27;6.53;;;5.77;;
13325;SDS011;6732;51.044;3.746;2023-03-01T12:15:19;6.47;;;5.80;;
13325;SDS011;6732;51.044;3.746;2023-03-01T12:20:34;7.53;;;6.20;;
13325;SDS011;6732;51.044;3.746;2023-03-01T12:28:13;6.13;;;5.53;;
13325;SDS011;6732;51.044;3.746;2023-03-01T12:30:57;6.23;;;5.63;;
13325;SDS011;6732;51.044;3.746;2023-03-01T12:51:29;7.10;;;6.20;;
13325;SDS011;6732;51.044;3.746;2023-03-01T12:53:56;5.87;;;5.27;;
13325;SDS011;6732;51.044;3.746;2023-03-01T12:56:25;6.97;;;5.67;;
13325;SDS011;6732;51.044;3.746;2023-03-01T12:59:01;6.30;;;5.70;;
13325;SDS011;6732;51.044;3.746;2023-03-01T13:01:34;7.30;;;5.20;;
13325;SDS011;6732;51.044;3.746;2023-03-01T13:09:13;6.30;;;5.40;;
13325;SDS011;6732;51.044;3.746;2023-03-01T13:11:41;7.57;;;5.87;;
13325;SDS011;6732;51.044;3.746;2023-03-01T13:16:48;6.90;;;6.20;;
13325;SDS011;6732;51.044;3.746;2023-03-01T13:21:41;8.27;;;6.03;;
13325;SDS011;6732;51.044;3.746;2023-03-01T13:27:26;5.93;;;5.33;;
13325;SDS011;6732;51.044;3.746;2023-03-01T13:32:26;6.47;;;5.67;;
13325;SDS011;6732;51.044;3.746;2023-03-01T13:35:41;6.77;;;5.60;;
13325;SDS011;6732;51.044;3.746;2023-03-01T13:37:47;6.57;;;5.80;;
13325;SDS011;6732;51.044;3.746;2023-03-01T13:45:16;6.80;;;6.10;;
13325;SDS011;6732;51.044;3.746;2023-03-01T13:47:44;7.00;;;6.30;;
13325;SDS011;6732;51.044;3.746;2023-03-01T13:50:23;7.57;;;5.83;;
13325;SDS011;6732;51.044;3.746;2023-03-01T13:52:52;8.33;;;6.03;;
13325;SDS011;6732;51.044;3.746;2023-03-01T13:55:21;6.13;;;5.53;;
13325;SDS011;6732;51.044;3.746;2023-03-01T13:57:50;6.60;;;5.90;;
13325;SDS011;6732;51.044;3.746;2023-03-01T14:00:40;7.43;;;6.40;;
13325;SDS011;6732;51.044;3.746;2023-03-01T14:05:32;8.73;;;6.43;;
13325;SDS011;6732;51.044;3.746;2023-03-01T14:07:59;6.20;;;5.57;;
13325;SDS011;6732;51.044;3.746;2023-03-01T14:10:26;8.60;;;6.13;;
13325;SDS011;6732;51.044;3.746;2023-03-01T14:13:09;8.47;;;6.40;;
13325;SDS011;6732;51.044;3.746;2023-03-01T14:18:33;7.57;;;6.70;;
13325;SDS011;6732;51.044;3.746;2023-03-01T14:21:00;8.23;;;6.30;;
13325;SDS011;6732;51.044;3.746;2023-03-01T14:23:27;7.93;;;7.07;;
13325;SDS011;6732;51.044;3.746;2023-03-01T14:25:55;7.40;;;6.40;;
13325;SDS011;6732;51.044;3.746;2023-03-01T14:28:26;10.03;;;6.43;;
13325;SDS011;6732;51.044;3.746;2023-03-01T14:30:54;8.17;;;6.37;;
13325;SDS011;6732;51.044;3.746;2023-03-01T14:36:04;7.50;;;6.13;;
13325;SDS011;6732;51.044;3.746;2023-03-01T14:40:59;7.10;;;5.80;;
13325;SDS011;6732;51.044;3.746;2023-03-01T14:43:27;7.30;;;5.80;;
13325;SDS011;6732;51.044;3.746;2023-03-01T14:45:55;8.50;;;6.33;;
13325;SDS011;6732;51.044;3.746;2023-03-01T14:48:21;6.20;;;5.60;;
13325;SDS011;6732;51.044;3.746;2023-03-01T14:50:48;7.63;;;6.00;;
13325;SDS011;6732;51.044;3.746;2023-03-01T14:53:19;6.83;;;6.13;;
13325;SDS011;6732;51.044;3.746;2023-03-01T14:55:47;8.00;;;6.27;;
13325;SDS011;6732;51.044;3.746;2023-03-01T14:58:15;8.50;;;6.47;;
13325;SDS011;6732;51.044;3.746;2023-03-01T15:00:48;8.10;;;6.60;;
13325;SDS011;6732;51.044;3.746;2023-03-01T15:03:19;7.07;;;6.10;;
13325;SDS011;6732;51.044;3.746;2023-03-01T15:05:46;7.03;;;6.33;;
13325;SDS011;6732;51.044;3.746;2023-03-01T15:08:17;8.57;;;6.77;;
13325;SDS011;6732;51.044;3.746;2023-03-01T15:10:55;7.43;;;6.17;;
13325;SDS011;6732;51.044;3.746;2023-03-01T15:13:24;7.10;;;6.40;;
13325;SDS011;6732;51.044;3.746;2023-03-01T15:15:51;7.13;;;6.17;;
13325;SDS011;6732;51.044;3.746;2023-03-01T15:18:20;6.80;;;6.10;;
13325;SDS011;6732;51.044;3.746;2023-03-01T15:20:47;8.17;;;6.20;;
13325;SDS011;6732;51.044;3.746;2023-03-01T15:23:22;7.63;;;6.20;;
13325;SDS011;6732;51.044;3.746;2023-03-01T15:25:50;8.07;;;6.33;;
13325;SDS011;6732;51.044;3.746;2023-03-01T15:28:25;9.03;;;6.03;;
13325;SDS011;6732;51.044;3.746;2023-03-01T15:30:54;7.10;;;6.07;;
13325;SDS011;6732;51.044;3.746;2023-03-01T15:35:53;7.10;;;6.40;;
13325;SDS011;6732;51.044;3.746;2023-03-01T15:38:35;7.97;;;5.90;;
13325;SDS011;6732;51.044;3.746;2023-03-01T15:44:42;8.80;;;6.17;;
13325;SDS011;6732;51.044;3.746;2023-03-01T15:47:04;6.97;;;6.27;;
13325;SDS011;6732;51.044;3.746;2023-03-01T15:51:58;7.27;;;6.50;;
13325;SDS011;6732;51.044;3.746;2023-03-01T15:54:25;7.00;;;6.30;;
13325;SDS011;6732;51.044;3.746;2023-03-01T15:56:52;7.63;;;6.50;;
13325;SDS011;6732;51.044;3.746;2023-03-01T15:59:19;7.87;;;6.90;;
13325;SDS011;6732;51.044;3.746;2023-03-01T16:01:47;7.03;;;6.33;;
13325;SDS011;6732;51.044;3.746;2023-03-01T16:04:15;8.10;;;6.93;;
13325;SDS011;6732;51.044;3.746;2023-03-01T16:06:46;7.73;;;6.90;;
13325;SDS011;6732;51.044;3.746;2023-03-01T16:09:20;7.13;;;6.30;;
13325;SDS011;6732;51.044;3.746;2023-03-01T16:11:46;8.67;;;6.90;;
13325;SDS011;6732;51.044;3.746;2023-03-01T16:14:13;11.23;;;6.53;;
13325;SDS011;6732;51.044;3.746;2023-03-01T16:16:40;9.00;;;7.10;;
13325;SDS011;6732;51.044;3.746;2023-03-01T16:19:06;8.27;;;7.00;;
13325;SDS011;6732;51.044;3.746;2023-03-01T16:21:32;8.03;;;6.70;;
13325;SDS011;6732;51.044;3.746;2023-03-01T16:23:58;8.07;;;7.27;;
13325;SDS011;6732;51.044;3.746;2023-03-01T16:26:25;7.53;;;6.67;;
13325;SDS011;6732;51.044;3.746;2023-03-01T16:28:53;8.40;;;6.60;;
13325;SDS011;6732;51.044;3.746;2023-03-01T16:31:20;8.03;;;7.13;;
13325;SDS011;6732;51.044;3.746;2023-03-01T16:33:46;7.80;;;6.47;;
13325;SDS011;6732;51.044;3.746;2023-03-01T16:36:16;9.40;;;7.00;;
13325;SDS011;6732;51.044;3.746;2023-03-01T16:38:42;9.00;;;6.77;;
13325;SDS011;6732;51.044;3.746;2023-03-01T16:41:13;11.40;;;9.70;;
13325;SDS011;6732;51.044;3.746;2023-03-01T16:43:39;15.77;;;12.00;;